CYBG

CFB Bagotville  Airport

Bagotville, Quebec, Canada

CYBG 191700Z 11003KT 3/4SM R11/5000FT -SN VV008 M01/M02 A2906 RMK SN8 VIS VRB 1/2-1 /S05/ SLP848

Observed Flight Rules
Nov-19 @ 17:00 UTC (57 minutes ago)
 
Instrument Flight Rules
Wind Visibility Clouds Conditions
110° at 3 knots 3/4 miles
  • Vertical visibility at 800' AGL
  • Light Snow
Temperatures Readings
Current -1°C / 30°F
Dewpoint -2°C / 28°F
Humidity 93%
Altimeter 29.06" Hg
Pressure 984.8 hPa
Elevation 159
Observed Flight Rules
Nov-19 @ 17:00 UTC
(57 minutes ago)
 
LIFR
Wind Visibility
110° at 3 knots 3/4 miles
Clouds
  • Vertical visibility at 800' AGL
Conditions
  • Light Snow
Temperature Dewpoint
-1°C / 30°F -2°C / 28°F
Humidity Altimeter Pressure
93% 29.06" Hg 984.8 hPa